Time;durP1;ratioP1;P1;durP2;ratioP2;P2;SDS_P1;SDS_P2;PMS_P1;PMS_P2;Temp;Humidity;BMP_temperature;BMP_pressure;BME280_temperature;BME280_humidity;BME280_pressure;Samples;Min_cycle;Max_cycle;Signal;HPM_P1;HPM_P2
2022/02/20 00:00:14;;;;;;;9.13;2.08;;;;;;;4.55;100.00;101021.25;10420975;28;20037;-77
2022/02/20 00:05:15;;;;;;;15.98;3.03;;;;;;;4.63;100.00;101042.78;10420806;28;20438;-77
2022/02/20 00:10:15;;;;;;;4.07;1.40;;;;;;;4.65;100.00;101055.00;10419317;28;20034;-75
2022/02/20 00:15:15;;;;;;;5.43;2.20;;;;;;;4.68;100.00;101083.38;10420444;28;20064;-76
2022/02/20 00:20:16;;;;;;;10.27;2.05;;;;;;;4.73;100.00;101091.81;10420829;28;20036;-75
2022/02/20 00:25:17;;;;;;;3.58;1.15;;;;;;;4.69;100.00;101089.56;10420668;28;20128;-78
2022/02/20 00:30:18;;;;;;;2.40;1.65;;;;;;;4.70;100.00;101089.44;10420293;28;20065;-75
2022/02/20 00:35:18;;;;;;;5.85;1.50;;;;;;;4.74;100.00;101095.34;10419741;28;20037;-76
2022/02/20 00:40:19;;;;;;;4.40;1.05;;;;;;;4.75;100.00;101099.69;10421037;28;20114;-76
2022/02/20 00:45:19;;;;;;;10.23;2.45;;;;;;;4.78;100.00;101100.22;10401823;28;20441;-75
2022/02/20 00:50:19;;;;;;;1.95;1.45;;;;;;;4.79;100.00;101104.63;10402040;28;20040;-76
2022/02/20 00:55:20;;;;;;;1.20;1.15;;;;;;;4.85;100.00;101100.44;10419594;28;20046;-76
2022/02/20 01:00:21;;;;;;;6.05;2.35;;;;;;;4.88;100.00;101092.94;10419028;28;20034;-75
2022/02/20 01:05:21;;;;;;;3.40;1.55;;;;;;;4.89;100.00;101101.84;10419133;28;20187;-75
2022/02/20 01:10:22;;;;;;;8.02;1.25;;;;;;;4.93;100.00;101097.00;10418588;28;20124;-76
2022/02/20 01:15:22;;;;;;;2.35;2.15;;;;;;;4.97;100.00;101111.78;10418709;28;20034;-76
2022/02/20 01:20:23;;;;;;;4.53;2.00;;;;;;;4.97;100.00;101117.97;10418151;28;20065;-76
2022/02/20 01:25:23;;;;;;;6.38;1.67;;;;;;;4.95;100.00;101119.16;10419186;28;20504;-75
2022/02/20 01:30:24;;;;;;;20.70;2.17;;;;;;;4.95;100.00;101113.78;10416805;28;20057;-76
2022/02/20 01:35:24;;;;;;;3.60;1.70;;;;;;;4.89;100.00;101115.25;10416592;28;20465;-76
2022/02/20 01:40:27;;;;;;;7.57;2.47;;;;;;;4.70;100.00;101099.34;10416166;28;20062;-75
2022/02/20 01:45:27;;;;;;;1.92;1.70;;;;;;;4.39;100.00;101084.44;10416813;28;20037;-75
2022/02/20 01:50:28;;;;;;;2.90;2.63;;;;;;;4.18;100.00;101102.69;10415432;28;20074;-75
2022/02/20 01:55:28;;;;;;;0.93;0.93;;;;;;;4.28;100.00;101105.31;10416962;28;20038;-77
2022/02/20 02:00:29;;;;;;;2.55;1.30;;;;;;;4.42;100.00;101096.72;10415509;28;20086;-77
2022/02/20 02:05:30;;;;;;;7.68;2.58;;;;;;;4.38;100.00;101087.31;10417715;28;20122;-76
2022/02/20 02:10:30;;;;;;;5.90;2.30;;;;;;;4.18;100.00;101090.13;10417471;28;20420;-75
2022/02/20 02:15:30;;;;;;;2.13;1.55;;;;;;;3.99;100.00;101095.59;10416954;28;20040;-75
2022/02/20 02:20:31;;;;;;;6.90;2.40;;;;;;;3.96;100.00;101102.09;10417086;28;20052;-75
2022/02/20 02:25:31;;;;;;;3.70;1.65;;;;;;;4.11;100.00;101091.69;10415486;28;20079;-75
2022/02/20 02:30:32;;;;;;;5.40;2.35;;;;;;;4.14;100.00;101078.00;10416293;28;20033;-77
2022/02/20 02:35:32;;;;;;;2.53;1.75;;;;;;;4.15;100.00;101046.69;10416353;28;20041;-77
2022/02/20 02:40:33;;;;;;;8.23;2.85;;;;;;;4.23;100.00;101040.56;10416301;28;20497;-77
2022/02/20 02:45:33;;;;;;;1.70;1.60;;;;;;;4.05;100.00;101036.06;10414864;28;20128;-77
2022/02/20 02:50:34;;;;;;;5.68;2.60;;;;;;;3.94;100.00;101055.84;10414041;28;20045;-74
2022/02/20 02:55:34;;;;;;;3.28;2.88;;;;;;;3.93;100.00;101054.16;10415767;28;20465;-77
2022/02/20 03:00:35;;;;;;;4.95;4.00;;;;;;;3.84;100.00;101054.22;10397366;28;20068;-76
2022/02/20 03:05:35;;;;;;;4.97;4.57;;;;;;;3.80;100.00;101056.38;10415483;28;20030;-76
2022/02/20 03:10:35;;;;;;;11.60;5.85;;;;;;;3.79;100.00;101027.88;10414602;28;20037;-76
2022/02/20 03:15:36;;;;;;;7.28;5.28;;;;;;;3.87;100.00;101017.25;10414618;28;20037;-75
2022/02/20 03:20:36;;;;;;;11.98;5.43;;;;;;;3.79;100.00;100993.06;10415484;28;20038;-75
2022/02/20 03:25:37;;;;;;;8.73;7.00;;;;;;;3.86;100.00;101010.22;10414012;28;20519;-75
2022/02/20 03:30:37;;;;;;;19.73;10.15;;;;;;;3.99;100.00;100996.47;10415770;28;20068;-75
2022/02/20 03:35:38;;;;;;;17.35;8.15;;;;;;;3.96;100.00;100986.88;10414437;28;20052;-75
2022/02/20 03:40:38;;;;;;;8.38;7.15;;;;;;;4.01;100.00;100973.03;10414787;28;20072;-76
2022/02/20 03:45:38;;;;;;;10.18;6.85;;;;;;;4.02;100.00;100966.69;10413054;28;20379;-75
2022/02/20 03:50:39;;;;;;;14.35;8.50;;;;;;;4.02;100.00;100964.00;10412867;28;20128;-76
2022/02/20 03:55:39;;;;;;;16.85;9.50;;;;;;;4.01;100.00;100950.75;10414016;28;20084;-75
2022/02/20 04:00:40;;;;;;;8.93;7.75;;;;;;;4.02;100.00;100944.38;10413736;28;20133;-74
2022/02/20 04:05:40;;;;;;;11.40;9.73;;;;;;;4.02;100.00;100933.66;10416588;28;20531;-74
2022/02/20 04:10:40;;;;;;;13.32;8.52;;;;;;;3.97;100.00;100916.22;10419192;28;20116;-74
2022/02/20 04:15:41;;;;;;;9.30;7.20;;;;;;;4.03;100.00;100897.84;10420265;28;20095;-75
2022/02/20 04:20:41;;;;;;;14.95;9.48;;;;;;;4.05;100.00;100886.00;10419452;28;20029;-75
2022/02/20 04:25:42;;;;;;;15.73;8.45;;;;;;;4.14;100.00;100865.44;10419322;28;20116;-74
2022/02/20 04:30:42;;;;;;;15.77;7.22;;;;;;;4.27;100.00;100844.41;10420868;28;20461;-75
2022/02/20 04:35:43;;;;;;;15.55;8.57;;;;;;;4.34;100.00;100836.56;10418816;28;20485;-75
2022/02/20 04:40:43;;;;;;;9.18;7.22;;;;;;;4.35;100.00;100833.75;10420374;28;20140;-75
2022/02/20 04:45:43;;;;;;;11.07;7.95;;;;;;;4.39;100.00;100813.66;10403769;28;20045;-75
2022/02/20 04:50:44;;;;;;;10.85;7.75;;;;;;;4.49;100.00;100777.84;10418494;28;20388;-75
2022/02/20 04:55:44;;;;;;;20.10;9.05;;;;;;;4.61;100.00;100776.56;10401790;28;20072;-74
2022/02/20 05:00:45;;;;;;;33.80;11.80;;;;;;;4.64;100.00;100760.16;10419745;28;20030;-75
2022/02/20 05:05:45;;;;;;;21.98;9.32;;;;;;;4.80;100.00;100745.94;10419084;28;20049;-75
2022/02/20 05:10:46;;;;;;;29.02;10.48;;;;;;;4.96;100.00;100719.16;10418657;28;20112;-75
2022/02/20 05:15:49;;;;;;;14.15;10.50;;;;;;;5.08;100.00;100714.31;10418841;28;20075;-75
2022/02/20 05:20:54;;;;;;;19.70;10.27;;;;;;;5.24;100.00;100725.06;10418887;28;20037;-74
2022/02/20 05:25:55;;;;;;;12.80;8.88;;;;;;;5.32;100.00;100702.72;10419950;28;20068;-73
2022/02/20 05:30:55;;;;;;;17.23;11.25;;;;;;;5.54;100.00;100711.94;10418372;28;20060;-74
2022/02/20 05:35:55;;;;;;;21.13;8.57;;;;;;;5.69;100.00;100683.38;10418173;28;20068;-74
2022/02/20 05:40:56;;;;;;;20.98;11.13;;;;;;;5.88;100.00;100687.53;10416831;28;20056;-73
2022/02/20 05:45:56;;;;;;;23.08;10.50;;;;;;;6.06;100.00;100676.59;10415402;28;20120;-74
2022/02/20 05:50:57;;;;;;;25.25;8.75;;;;;;;6.23;100.00;100678.22;10417048;28;20069;-74
2022/02/20 05:55:57;;;;;;;21.05;7.40;;;;;;;6.28;100.00;100648.09;10399128;28;20033;-74
2022/02/20 06:00:58;;;;;;;14.15;7.97;;;;;;;6.43;100.00;100649.03;10416516;28;20072;-74
2022/02/20 06:05:59;;;;;;;23.50;8.70;;;;;;;6.57;100.00;100639.34;10415946;28;20354;-74
2022/02/20 06:11:00;;;;;;;24.42;8.70;;;;;;;6.70;100.00;100625.31;10415208;28;20120;-74
2022/02/20 06:16:00;;;;;;;22.40;8.98;;;;;;;6.88;100.00;100625.84;10416297;28;20423;-74
2022/02/20 06:21:00;;;;;;;31.73;8.55;;;;;;;7.08;100.00;100620.81;10416610;28;20079;-74
2022/02/20 06:26:01;;;;;;;39.90;8.75;;;;;;;7.32;100.00;100608.97;10416675;28;20125;-73
2022/02/20 06:31:01;;;;;;;49.33;12.73;;;;;;;7.61;100.00;100621.66;10397547;28;20140;-75
2022/02/20 06:36:02;;;;;;;32.05;9.30;;;;;;;7.81;100.00;100627.31;10415760;28;20121;-73
2022/02/20 06:41:02;;;;;;;56.10;12.90;;;;;;;7.95;100.00;100603.25;10414739;28;20434;-73
2022/02/20 06:46:03;;;;;;;37.63;13.70;;;;;;;8.05;100.00;100614.56;10415653;28;20042;-75
2022/02/20 06:51:03;;;;;;;44.88;12.88;;;;;;;8.08;100.00;100617.72;10415715;28;20116;-73
2022/02/20 06:56:04;;;;;;;52.67;12.10;;;;;;;8.16;100.00;100608.69;10414108;28;20068;-73
2022/02/20 07:01:04;;;;;;;71.70;12.20;;;;;;;8.21;100.00;100595.47;10414651;28;20108;-73
2022/02/20 07:06:04;;;;;;;32.83;9.57;;;;;;;8.23;100.00;100573.69;10415388;28;20033;-74
2022/02/20 07:11:05;;;;;;;55.20;12.25;;;;;;;8.27;100.00;100589.34;10413115;28;20121;-72
2022/02/20 07:16:05;;;;;;;43.08;13.57;;;;;;;8.30;100.00;100580.84;10414534;28;20046;-73
2022/02/20 07:21:06;;;;;;;50.42;12.57;;;;;;;8.35;100.00;100580.28;10414989;28;20025;-73
2022/02/20 07:26:06;;;;;;;49.47;13.43;;;;;;;8.38;100.00;100569.13;10415469;28;20037;-73
2022/02/20 07:31:06;;;;;;;28.98;10.88;;;;;;;8.42;100.00;100543.44;10415606;28;20457;-72
2022/02/20 07:36:07;;;;;;;44.88;11.18;;;;;;;8.46;100.00;100560.94;10414369;28;20045;-71
2022/02/20 07:41:07;;;;;;;58.63;12.50;;;;;;;8.51;100.00;100547.69;10419382;28;20060;-72
2022/02/20 07:46:08;;;;;;;48.00;14.27;;;;;;;8.55;100.00;100557.06;10421898;28;20421;-72
2022/02/20 07:51:08;;;;;;;41.72;12.10;;;;;;;8.64;100.00;100541.56;10421123;28;20037;-75
2022/02/20 07:56:09;;;;;;;59.45;12.13;;;;;;;8.66;100.00;100566.50;10422365;28;20037;-73
2022/02/20 08:01:10;;;;;;;52.67;12.82;;;;;;;8.71;100.00;100576.72;10421036;28;20108;-72
2022/02/20 08:06:10;;;;;;;47.00;11.60;;;;;;;8.73;100.00;100553.06;10437432;28;20037;-73
2022/02/20 08:11:11;;;;;;;32.92;13.52;;;;;;;8.75;100.00;100554.56;10421000;28;20041;-73
2022/02/20 08:16:11;;;;;;;39.92;10.93;;;;;;;8.75;100.00;100524.88;10420799;28;20072;-74
2022/02/20 08:21:11;;;;;;;42.72;10.23;;;;;;;8.77;100.00;100530.88;10421550;28;20469;-74
2022/02/20 08:26:12;;;;;;;37.70;9.45;;;;;;;8.85;100.00;100546.13;10420625;28;20151;-73
2022/02/20 08:31:12;;;;;;;21.00;10.35;;;;;;;8.90;100.00;100540.97;10420266;28;20041;-72
2022/02/20 08:36:13;;;;;;;50.90;13.27;;;;;;;8.91;100.00;100558.84;10421035;28;20504;-73
2022/02/20 08:41:14;;;;;;;58.70;16.65;;;;;;;8.96;100.00;100545.56;10419856;28;20195;-73
2022/02/20 08:46:14;;;;;;;55.58;14.50;;;;;;;8.99;100.00;100533.56;10419632;28;20188;-72
2022/02/20 08:51:16;;;;;;;36.95;13.05;;;;;;;9.04;100.00;100569.75;10419343;28;20029;-73
2022/02/20 08:56:19;;;;;;;46.45;13.38;;;;;;;9.09;100.00;100558.34;10419596;28;20030;-72
2022/02/20 09:01:19;;;;;;;49.65;12.80;;;;;;;9.14;100.00;100542.41;10417465;28;20025;-72
2022/02/20 09:06:20;;;;;;;37.88;13.10;;;;;;;9.19;100.00;100569.66;10326367;28;20085;-73
2022/02/20 09:11:21;;;;;;;41.45;13.25;;;;;;;9.18;100.00;100554.47;10376077;28;20054;-73
2022/02/20 09:16:21;;;;;;;61.35;15.00;;;;;;;9.25;100.00;100536.47;10376258;28;20068;-73
2022/02/20 09:21:21;;;;;;;50.55;15.00;;;;;;;9.35;100.00;100537.94;10377150;28;20030;-73
2022/02/20 09:26:22;;;;;;;52.60;15.70;;;;;;;9.43;100.00;100546.75;10378063;28;20029;-74
2022/02/20 09:31:22;;;;;;;73.97;14.48;;;;;;;9.46;100.00;100545.53;10375782;28;20644;-73
2022/02/20 09:36:23;;;;;;;45.40;15.00;;;;;;;9.36;100.00;100521.56;10375501;28;20038;-74
2022/02/20 09:41:28;;;;;;;59.58;15.50;;;;;;;9.39;100.00;100544.66;10375841;28;20536;-74
2022/02/20 09:46:28;;;;;;;36.85;14.52;;;;;;;9.28;100.00;100537.91;10376871;28;20112;-74
2022/02/20 09:51:30;;;;;;;48.20;17.02;;;;;;;9.25;100.00;100544.56;10376380;28;20462;-74
2022/02/20 09:56:31;;;;;;;63.40;14.75;;;;;;;9.13;100.00;100539.91;10375297;28;20088;-74
2022/02/20 10:01:32;;;;;;;40.22;13.48;;;;;;;9.05;100.00;100539.00;10357498;28;20121;-74
2022/02/20 10:06:32;;;;;;;47.42;15.35;;;;;;;8.97;100.00;100547.28;10374193;28;20033;-74
2022/02/20 10:11:32;;;;;;;57.20;16.23;;;;;;;8.92;100.00;100536.22;10375497;28;20034;-74
2022/02/20 10:16:33;;;;;;;55.90;15.88;;;;;;;8.91;100.00;100542.66;10375405;28;20042;-75
2022/02/20 10:21:34;;;;;;;46.17;14.88;;;;;;;8.90;100.00;100524.75;10374536;28;20074;-75
2022/02/20 10:26:44;;;;;;;51.70;15.85;;;;;;;8.91;100.00;100521.03;10389612;28;20091;-74
2022/02/20 10:31:51;;;;;;;55.67;16.83;;;;;;;8.86;100.00;100545.09;10391203;28;20056;-75
2022/02/20 10:36:59;;;;;;;55.05;15.30;;;;;;;8.92;100.00;100530.81;10373725;28;20034;-75
2022/02/20 10:42:13;;;;;;;59.28;17.88;;;;;;;8.93;100.00;100516.25;10373197;28;20064;-75
2022/02/20 10:47:14;;;;;;;53.97;16.80;;;;;;;8.85;100.00;100502.94;10389647;28;20407;-75
2022/02/20 10:52:24;;;;;;;46.80;13.15;;;;;;;8.90;100.00;100511.25;10375390;28;20038;-74
2022/02/20 10:57:38;;;;;;;58.45;15.45;;;;;;;8.90;100.00;100513.94;10374268;28;20022;-75
2022/02/20 11:02:39;;;;;;;61.95;17.55;;;;;;;8.91;100.00;100485.94;10357037;28;20034;-75
2022/02/20 11:07:39;;;;;;;62.47;17.13;;;;;;;8.99;100.00;100480.38;10374210;28;20116;-74
2022/02/20 11:12:40;;;;;;;45.30;13.35;;;;;;;9.00;100.00;100475.84;10372115;28;20370;-75
2022/02/20 11:17:40;;;;;;;73.22;19.55;;;;;;;9.03;100.00;100470.88;10382568;28;20057;-75
2022/02/20 11:22:41;;;;;;;48.80;14.55;;;;;;;9.10;100.00;100464.66;10381759;28;20481;-74
2022/02/20 11:27:42;;;;;;;44.97;14.55;;;;;;;9.06;100.00;100459.66;10380292;28;20041;-76
2022/02/20 11:32:43;;;;;;;53.17;15.23;;;;;;;9.11;100.00;100458.22;10382181;28;20092;-75
2022/02/20 11:37:50;;;;;;;56.13;13.80;;;;;;;9.07;100.00;100444.28;10380164;28;20367;-75
2022/02/20 11:42:59;;;;;;;68.68;17.10;;;;;;;9.06;100.00;100442.59;10381499;28;20053;-75
2022/02/20 11:48:03;;;;;;;63.70;17.00;;;;;;;9.11;100.00;100431.22;10381670;28;20121;-75
2022/02/20 11:53:08;;;;;;;69.03;17.30;;;;;;;9.08;100.00;100390.06;10397161;28;20083;-76
2022/02/20 11:58:12;;;;;;;79.40;16.45;;;;;;;9.07;100.00;100407.31;10396312;28;20025;-74
2022/02/20 12:03:19;;;;;;;50.50;16.88;;;;;;;9.12;100.00;100393.19;10380509;28;20072;-74
2022/02/20 12:08:33;;;;;;;47.88;15.02;;;;;;;9.11;100.00;100390.69;10380402;28;20045;-76
2022/02/20 12:13:33;;;;;;;33.72;15.80;;;;;;;9.03;100.00;100375.47;10378765;28;20038;-74
2022/02/20 12:18:33;;;;;;;47.35;15.80;;;;;;;9.03;100.00;100392.53;10379709;28;20034;-75
2022/02/20 12:23:48;;;;;;;60.03;15.00;;;;;;;9.00;100.00;100325.41;10379463;28;20082;-75
2022/02/20 12:28:48;;;;;;;61.88;19.80;;;;;;;8.99;100.00;100339.94;10394100;28;20088;-74
2022/02/20 12:33:49;;;;;;;54.88;17.25;;;;;;;9.01;100.00;100347.84;10377492;28;20040;-74
2022/02/20 12:38:51;;;;;;;49.03;14.88;;;;;;;8.98;100.00;100338.28;10378893;28;20037;-75
2022/02/20 12:43:53;;;;;;;41.63;14.55;;;;;;;9.03;100.00;100324.16;10376868;28;20108;-74
2022/02/20 12:48:55;;;;;;;56.63;15.57;;;;;;;9.08;100.00;100300.91;10379679;28;20038;-74
2022/02/20 12:53:55;;;;;;;46.92;14.70;;;;;;;9.07;100.00;100288.47;10379059;28;20548;-75
2022/02/20 12:58:56;;;;;;;53.42;14.90;;;;;;;9.08;100.00;100322.53;10392835;28;20064;-74
2022/02/20 13:03:56;;;;;;;61.72;15.75;;;;;;;9.10;100.00;100289.09;10377775;28;20034;-74
2022/02/20 13:08:57;;;;;;;45.17;12.88;;;;;;;9.12;100.00;100252.72;10376763;28;20061;-73
2022/02/20 13:14:10;;;;;;;53.95;14.32;;;;;;;9.10;100.00;100237.78;10376094;28;20069;-73
2022/02/20 13:19:10;;;;;;;50.17;18.23;;;;;;;9.07;100.00;100245.25;10359472;28;20038;-73
2022/02/20 13:24:11;;;;;;;60.47;15.88;;;;;;;9.10;100.00;100237.78;10376316;28;20037;-73
2022/02/20 13:29:11;;;;;;;90.30;17.15;;;;;;;9.09;100.00;100242.31;10377158;28;20056;-74
2022/02/20 13:34:15;;;;;;;63.40;15.95;;;;;;;9.10;100.00;100210.78;10375464;28;20085;-73
2022/02/20 13:39:16;;;;;;;49.42;15.95;;;;;;;9.13;100.00;100204.97;10375323;28;20381;-74
2022/02/20 13:44:26;;;;;;;60.45;16.50;;;;;;;9.17;100.00;100201.63;10392802;28;20054;-74
2022/02/20 13:49:27;;;;;;;61.85;22.02;;;;;;;9.19;100.00;100204.13;10375358;28;20060;-76
2022/02/20 13:54:36;;;;;;;104.65;20.27;;;;;;;9.22;100.00;100171.28;10374697;28;20125;-73
2022/02/20 13:59:36;;;;;;;60.40;15.82;;;;;;;9.27;100.00;100158.84;10374579;28;20022;-73
2022/02/20 14:04:47;;;;;;;79.57;19.73;;;;;;;9.27;100.00;100136.38;10375067;28;20128;-73
2022/02/20 14:09:49;;;;;;;65.68;16.10;;;;;;;9.30;100.00;100130.56;10374246;28;20037;-74
2022/02/20 14:15:07;;;;;;;57.42;14.48;;;;;;;9.37;100.00;100120.59;10375098;28;20034;-73
2022/02/20 14:20:10;;;;;;;45.22;13.10;;;;;;;9.31;100.00;100094.41;10374966;28;20033;-75
2022/02/20 14:25:14;;;;;;;74.72;18.92;;;;;;;9.31;100.00;100105.22;10375117;28;20436;-74
2022/02/20 14:30:33;;;;;;;57.67;16.23;;;;;;;9.31;100.00;100089.81;10374798;28;20042;-74
2022/02/20 14:35:33;;;;;;;35.63;13.50;;;;;;;9.28;100.00;100079.47;10374251;28;20037;-74
2022/02/20 14:40:34;;;;;;;58.55;16.20;;;;;;;9.32;100.00;100085.28;10374940;28;20038;-77
2022/02/20 14:45:34;;;;;;;67.65;19.52;;;;;;;9.30;100.00;100044.13;10373218;28;20054;-74
2022/02/20 14:50:36;;;;;;;77.40;19.48;;;;;;;9.25;100.00;100054.72;10373930;28;20120;-77
2022/02/20 14:55:36;;;;;;;58.25;19.15;;;;;;;9.25;100.00;99987.16;10375348;28;20049;-75
2022/02/20 15:00:37;;;;;;;39.85;11.57;;;;;;;9.20;100.00;100051.81;10374346;28;20080;-73
2022/02/20 15:05:39;;;;;;;44.08;13.65;;;;;;;9.18;100.00;100024.19;10374826;28;20524;-74
2022/02/20 15:10:39;;;;;;;61.10;14.57;;;;;;;9.13;100.00;100018.59;10373821;28;20037;-74
2022/02/20 15:15:40;;;;;;;43.53;13.65;;;;;;;9.16;100.00;100004.66;10375036;28;20144;-76
2022/02/20 15:20:40;;;;;;;61.47;14.63;;;;;;;9.14;100.00;99975.16;10372802;28;20121;-74
2022/02/20 15:25:41;;;;;;;44.55;13.10;;;;;;;9.15;100.00;99979.50;10357465;28;20041;-75
2022/02/20 15:30:41;;;;;;;34.00;11.95;;;;;;;9.14;100.00;99958.13;10373068;28;20084;-75
2022/02/20 15:35:41;;;;;;;62.70;13.93;;;;;;;9.12;100.00;99946.69;10372847;28;20096;-72
2022/02/20 15:40:42;;;;;;;37.30;12.60;;;;;;;9.11;100.00;99931.53;10371909;28;20065;-74
2022/02/20 15:45:42;;;;;;;40.67;11.27;;;;;;;9.13;100.00;99929.47;10373605;28;20105;-76
2022/02/20 15:50:43;;;;;;;29.55;10.98;;;;;;;9.13;100.00;99924.06;10373457;28;20165;-74
2022/02/20 15:55:47;;;;;;;40.40;11.23;;;;;;;9.16;100.00;99921.75;10373244;28;20533;-73
2022/02/20 16:00:47;;;;;;;32.28;11.25;;;;;;;9.14;100.00;99901.41;10376066;28;20034;-74
2022/02/20 16:05:48;;;;;;;42.20;11.30;;;;;;;9.13;100.00;99875.44;10380957;28;20406;-73
2022/02/20 16:10:49;;;;;;;27.73;9.95;;;;;;;9.13;100.00;99853.84;10380914;28;20041;-74
2022/02/20 16:15:50;;;;;;;25.38;7.95;;;;;;;9.13;100.00;99838.47;10380241;28;20362;-74
2022/02/20 16:20:53;;;;;;;48.45;10.90;;;;;;;9.15;100.00;99835.53;10379126;28;20026;-74
2022/02/20 16:25:55;;;;;;;38.90;10.93;;;;;;;9.15;100.00;99822.03;10380484;28;20447;-75
2022/02/20 16:30:58;;;;;;;29.27;9.82;;;;;;;9.17;100.00;99817.25;10380866;28;20034;-73
2022/02/20 16:35:59;;;;;;;20.42;10.23;;;;;;;9.16;100.00;99785.88;10378647;28;20038;-75
2022/02/20 16:41:00;;;;;;;21.05;10.57;;;;;;;9.15;100.00;99776.94;10377897;28;20058;-75
2022/02/20 16:46:00;;;;;;;52.88;15.02;;;;;;;9.13;100.00;99762.00;10379608;28;20038;-73
2022/02/20 16:51:02;;;;;;;26.20;11.30;;;;;;;9.15;100.00;99755.31;10377766;28;20056;-74
2022/02/20 16:56:02;;;;;;;29.58;9.98;;;;;;;9.16;100.00;99730.00;10378475;28;20442;-74
2022/02/20 17:01:03;;;;;;;38.53;12.45;;;;;;;9.17;100.00;99717.31;10360902;28;20038;-74
2022/02/20 17:06:04;;;;;;;40.35;11.02;;;;;;;9.16;100.00;99696.75;10379374;28;20045;-74
2022/02/20 17:11:04;;;;;;;39.83;13.23;;;;;;;9.15;100.00;99692.38;10376360;28;20390;-73
2022/02/20 17:16:05;;;;;;;38.00;11.55;;;;;;;9.14;100.00;99709.66;10377718;28;20045;-74
2022/02/20 17:21:05;;;;;;;35.88;11.88;;;;;;;9.15;100.00;99684.28;10377068;28;20029;-74
2022/02/20 17:26:05;;;;;;;31.88;10.35;;;;;;;9.14;100.00;99655.63;10378771;28;20049;-74
2022/02/20 17:31:07;;;;;;;40.70;12.38;;;;;;;9.15;100.00;99632.97;10378398;28;20033;-74
2022/02/20 17:36:08;;;;;;;39.38;11.07;;;;;;;9.16;100.00;99637.34;10378295;28;20050;-75
2022/02/20 17:41:08;;;;;;;35.85;12.20;;;;;;;9.11;100.00;99612.84;10375587;28;20544;-74
2022/02/20 17:46:08;;;;;;;31.70;11.18;;;;;;;9.15;100.00;99605.94;10376715;28;20041;-74
2022/02/20 17:51:09;;;;;;;18.77;9.68;;;;;;;9.10;100.00;99576.09;10377812;28;20109;-75
2022/02/20 17:56:09;;;;;;;44.15;13.82;;;;;;;9.10;100.00;99551.78;10375372;28;20133;-75
2022/02/20 18:01:10;;;;;;;45.47;12.68;;;;;;;9.13;100.00;99578.38;10375412;28;20375;-74
2022/02/20 18:06:10;;;;;;;26.83;9.32;;;;;;;9.14;100.00;99566.50;10376618;28;20068;-74
2022/02/20 18:11:11;;;;;;;49.65;10.25;;;;;;;9.17;100.00;99547.16;10375086;28;20042;-74
2022/02/20 18:16:12;;;;;;;47.17;12.15;;;;;;;9.15;100.00;99530.34;10376183;28;20034;-75
2022/02/20 18:21:13;;;;;;;54.83;11.10;;;;;;;9.15;100.00;99496.03;10375547;28;20036;-74
2022/02/20 18:26:14;;;;;;;27.45;8.55;;;;;;;9.20;100.00;99471.09;10357286;28;20041;-73
2022/02/20 18:31:15;;;;;;;31.95;11.82;;;;;;;9.20;100.00;99468.38;10377065;28;20030;-74
2022/02/20 18:36:15;;;;;;;31.65;11.13;;;;;;;9.22;100.00;99450.91;10375204;28;20364;-74
2022/02/20 18:41:16;;;;;;;32.10;7.55;;;;;;;9.27;100.00;99405.13;10374684;28;20057;-74
2022/02/20 18:46:16;;;;;;;22.63;8.95;;;;;;;9.27;100.00;99428.63;10374789;28;20490;-74
2022/02/20 18:51:16;;;;;;;41.50;9.07;;;;;;;9.31;100.00;99381.19;10376422;28;20046;-74
2022/02/20 18:56:17;;;;;;;23.17;10.50;;;;;;;9.30;100.00;99374.16;10373982;28;20037;-74
2022/02/20 19:01:17;;;;;;;37.55;10.50;;;;;;;9.30;100.00;99336.31;10374331;28;20032;-73
2022/02/20 19:06:18;;;;;;;18.67;8.15;;;;;;;9.31;100.00;99327.16;10374224;28;20132;-74
2022/02/20 19:11:19;;;;;;;18.55;9.25;;;;;;;9.29;100.00;99292.28;10374261;28;20037;-74
2022/02/20 19:16:21;;;;;;;39.88;8.32;;;;;;;9.35;100.00;99301.38;10373707;28;20044;-74
2022/02/20 19:21:21;;;;;;;17.73;8.85;;;;;;;9.33;100.00;99244.03;10374780;28;20041;-74
2022/02/20 19:26:23;;;;;;;42.92;8.07;;;;;;;9.32;100.00;99258.59;10374084;28;20500;-74
2022/02/20 19:31:23;;;;;;;21.75;8.80;;;;;;;9.35;100.00;99222.16;10374083;28;20426;-75
2022/02/20 19:36:24;;;;;;;29.30;8.57;;;;;;;9.30;100.00;99237.19;10378495;28;20030;-73
2022/02/20 19:41:24;;;;;;;33.35;10.43;;;;;;;9.31;100.00;99184.00;10382327;28;20053;-75
2022/02/20 19:46:24;;;;;;;20.40;8.00;;;;;;;9.33;100.00;99195.41;10381873;28;20046;-74
2022/02/20 19:51:25;;;;;;;29.05;7.93;;;;;;;9.34;100.00;99153.00;10379896;28;20038;-74
2022/02/20 19:56:25;;;;;;;29.50;8.25;;;;;;;9.41;100.00;99183.44;10380923;28;20034;-72
2022/02/20 20:01:26;;;;;;;40.25;9.27;;;;;;;9.40;100.00;99108.84;10380648;28;20037;-71
2022/02/20 20:06:26;;;;;;;35.75;10.38;;;;;;;9.48;100.00;99058.00;10380213;28;20080;-73
2022/02/20 20:11:27;;;;;;;45.30;11.18;;;;;;;9.57;100.00;99052.22;10379539;28;20034;-71
2022/02/20 20:16:31;;;;;;;24.50;8.23;;;;;;;9.68;100.00;99038.69;10381633;28;20041;-72
2022/02/20 20:21:31;;;;;;;30.27;10.80;;;;;;;9.79;100.00;99004.59;10379272;28;20053;-72
2022/02/20 20:26:32;;;;;;;25.83;7.07;;;;;;;9.90;100.00;99006.47;10379561;28;20048;-71
2022/02/20 20:31:33;;;;;;;25.05;8.63;;;;;;;9.92;100.00;98966.50;10380899;28;20119;-73
2022/02/20 20:36:33;;;;;;;11.23;3.65;;;;;;;9.28;100.00;99231.22;10379238;28;20033;-75
2022/02/20 20:41:36;;;;;;;3.92;3.03;;;;;;;6.54;100.00;99224.94;10382687;28;20056;-74
2022/02/20 20:46:37;;;;;;;18.60;3.53;;;;;;;5.77;100.00;99277.53;10384506;28;20030;-74
2022/02/20 20:51:37;;;;;;;29.63;6.97;;;;;;;5.32;100.00;99279.94;10381035;28;20041;-73
2022/02/20 20:56:40;;;;;;;21.45;4.40;;;;;;;5.13;100.00;99281.56;10377937;28;20081;-73
2022/02/20 21:01:40;;;;;;;15.07;4.22;;;;;;;5.14;100.00;99302.00;10378350;28;20033;-74
2022/02/20 21:06:41;;;;;;;18.70;4.35;;;;;;;5.27;100.00;99310.09;10378380;28;20033;-74
2022/02/20 21:11:41;;;;;;;22.92;5.45;;;;;;;5.34;100.00;99332.41;10376847;28;20037;-74
2022/02/20 21:16:44;;;;;;;8.48;4.93;;;;;;;5.47;100.00;99325.41;10377899;28;20492;-73
2022/02/20 21:21:44;;;;;;;21.40;6.85;;;;;;;5.52;100.00;99339.03;10377477;28;20030;-73
2022/02/20 21:26:45;;;;;;;20.63;5.88;;;;;;;5.54;100.00;99337.00;10377306;28;20056;-74
2022/02/20 21:31:45;;;;;;;17.48;5.70;;;;;;;5.64;100.00;99350.03;10375412;28;20042;-73
2022/02/20 21:36:45;;;;;;;26.15;6.32;;;;;;;5.71;100.00;99348.19;10360536;28;20462;-72
2022/02/20 21:41:46;;;;;;;22.05;6.30;;;;;;;5.71;100.00;99332.91;10375014;28;20080;-74
2022/02/20 21:46:46;;;;;;;21.20;6.40;;;;;;;5.81;100.00;99343.25;10376970;28;20038;-74
2022/02/20 21:51:47;;;;;;;34.88;5.07;;;;;;;5.87;100.00;99347.81;10376676;28;20036;-73
2022/02/20 21:56:47;;;;;;;17.75;5.28;;;;;;;5.91;100.00;99378.59;10376483;28;20065;-73
2022/02/20 22:01:49;;;;;;;32.38;7.20;;;;;;;5.98;100.00;99402.81;10376415;28;20119;-73
2022/02/20 22:06:49;;;;;;;24.40;5.75;;;;;;;6.01;100.00;99383.59;10376365;28;20433;-73
2022/02/20 22:11:53;;;;;;;14.65;5.10;;;;;;;6.05;100.00;99372.22;10376321;28;20096;-75
2022/02/20 22:16:53;;;;;;;11.85;4.55;;;;;;;6.09;100.00;99372.63;10374740;28;20105;-75
2022/02/20 22:21:54;;;;;;;13.95;3.40;;;;;;;6.17;100.00;99390.44;10374697;28;20061;-75
2022/02/20 22:26:54;;;;;;;7.57;2.90;;;;;;;6.20;100.00;99390.84;10375120;28;20042;-75
2022/02/20 22:31:55;;;;;;;18.17;4.88;;;;;;;6.22;100.00;99409.44;10374901;28;20034;-76
2022/02/20 22:36:55;;;;;;;5.03;4.07;;;;;;;6.22;100.00;99421.06;10374851;28;20038;-75
2022/02/20 22:41:55;;;;;;;19.23;4.63;;;;;;;6.25;100.00;99455.59;10374641;28;20054;-75
2022/02/20 22:46:56;;;;;;;15.45;4.05;;;;;;;6.35;100.00;99457.03;10375164;28;20049;-76